Time;durP1;ratioP1;P1;durP2;ratioP2;P2;SDS_P1;SDS_P2;PMS_P1;PMS_P2;Temp;Humidity;BMP_temperature;BMP_pressure;BME280_temperature;BME280_humidity;BME280_pressure;Samples;Min_cycle;Max_cycle;Signal;HPM_P1;HPM_P2
2021/08/08 00:00:18;;;;;;;;;;;;;;;16.25;100.00;99830.44;5104114;28;19966;-66
2021/08/08 00:02:44;;;;;;;;;;;;;;;16.27;100.00;99827.50;5107831;28;20457;-66
2021/08/08 00:05:12;;;;;;;;;;;;;;;16.22;100.00;99826.19;5113483;28;19967;-66
2021/08/08 00:07:39;;;;;;;;;;;;;;;16.21;100.00;99813.53;5112495;28;19966;-72
2021/08/08 00:10:08;;;;;;;;;;;;;;;16.19;100.00;99820.22;5112965;28;19927;-72
2021/08/08 00:12:34;;;;;;;;;;;;;;;16.13;100.00;99819.06;5113662;28;19978;-67
2021/08/08 00:15:01;;;;;;;;;;;;;;;16.06;100.00;99820.81;5112722;28;19977;-67
2021/08/08 00:17:27;;;;;;;;;;;;;;;16.04;100.00;99821.00;5113499;28;19967;-66
2021/08/08 00:19:54;;;;;;;;;;;;;;;16.08;100.00;99818.75;5113537;28;20014;-66
2021/08/08 00:22:22;;;;;;;;;;;;;;;16.06;100.00;99816.22;5113845;28;19951;-66
2021/08/08 00:24:48;;;;;;;;;;;;;;;16.10;100.00;99813.09;5113304;28;19962;-66
2021/08/08 00:27:14;;;;;;;;;;;;;;;16.05;100.00;99811.75;5113502;28;19993;-67
2021/08/08 00:29:41;;;;;;;;;;;;;;;16.05;100.00;99817.22;5113302;28;20447;-67
2021/08/08 00:32:08;;;;;;;;;;;;;;;16.06;100.00;99821.69;5113482;28;20354;-67
2021/08/08 00:34:36;;;;;;;;;;;;;;;16.03;100.00;99815.72;5111917;28;19924;-67
2021/08/08 00:37:03;;;;;;;;;;;;;;;16.08;100.00;99823.41;5111870;28;20462;-66
2021/08/08 00:39:32;;;;;;;;;;;;;;;16.03;100.00;99821.19;5111881;28;19923;-66
2021/08/08 00:41:59;;;;;;;;;;;;;;;16.01;100.00;99826.00;5111939;28;19923;-66
2021/08/08 00:44:26;;;;;;;;;;;;;;;15.99;100.00;99831.63;5111933;28;20027;-67
2021/08/08 00:46:53;;;;;;;;;;;;;;;15.97;100.00;99833.72;5111461;28;19949;-66
2021/08/08 00:49:22;;;;;;;;;;;;;;;15.95;100.00;99845.88;5111887;28;19923;-66
2021/08/08 00:51:51;;;;;;;;;;;;;;;15.95;100.00;99848.63;5111902;28;19927;-72
2021/08/08 00:54:21;;;;;;;;;;;;;;;15.92;100.00;99838.88;5111747;28;19931;-72
2021/08/08 00:56:49;;;;;;;;;;;;;;;15.94;100.00;99838.69;5112683;28;19967;-72
2021/08/08 00:59:16;;;;;;;;;;;;;;;15.93;100.00;99834.25;5112882;28;19924;-72
2021/08/08 01:01:44;;;;;;;;;;;;;;;15.90;100.00;99830.84;5111570;28;20467;-72
2021/08/08 01:04:14;;;;;;;;;;;;;;;15.85;100.00;99827.81;5111673;28;19923;-72
2021/08/08 01:06:43;;;;;;;;;;;;;;;15.85;100.00;99827.81;5111310;28;19928;-72
2021/08/08 01:09:13;;;;;;;;;;;;;;;15.81;100.00;99831.94;5111440;28;19963;-72
2021/08/08 01:11:40;;;;;;;;;;;;;;;15.77;100.00;99833.31;5111560;28;19923;-71
2021/08/08 01:14:08;;;;;;;;;;;;;;;15.74;100.00;99826.31;5112724;28;19924;-72
2021/08/08 01:16:40;;;;;;;;;;;;;;;15.74;100.00;99830.94;5110985;28;19931;-66
2021/08/08 01:19:09;;;;;;;;;;;;;;;15.71;100.00;99825.81;5111253;28;20428;-66
2021/08/08 01:21:38;;;;;;;;;;;;;;;15.65;100.00;99821.91;5111170;28;19924;-66
2021/08/08 01:24:09;;;;;;;;;;;;;;;15.63;100.00;99813.03;5111361;28;20137;-65
2021/08/08 01:26:36;;;;;;;;;;;;;;;15.57;100.00;99820.06;5110796;28;20011;-66
2021/08/08 01:29:04;;;;;;;;;;;;;;;15.54;100.00;99817.69;5111196;28;19923;-66
2021/08/08 01:31:31;;;;;;;;;;;;;;;15.53;100.00;99820.63;5110994;28;20421;-66
2021/08/08 01:33:57;;;;;;;;;;;;;;;15.47;100.00;99818.59;5111023;28;19924;-66
2021/08/08 01:36:26;;;;;;;;;;;;;;;15.50;100.00;99813.63;5110107;28;19924;-66
2021/08/08 01:39:01;;;;;;;;;;;;;;;15.48;100.00;99814.84;5110810;28;19924;-66
2021/08/08 01:41:31;;;;;;;;;;;;;;;15.42;100.00;99816.41;5111049;28;19928;-66
2021/08/08 01:44:01;;;;;;;;;;;;;;;15.34;100.00;99809.09;5111028;28;20371;-71
2021/08/08 01:46:28;;;;;;;;;;;;;;;15.30;100.00;99820.53;5110367;28;19928;-72
2021/08/08 01:49:19;;;;;;;;;;;;;;;15.25;100.00;99825.72;5110793;28;19928;-72
2021/08/08 01:51:46;;;;;;;;;;;;;;;15.23;100.00;99831.34;5110918;28;20316;-72
2021/08/08 01:54:16;;;;;;;;;;;;;;;15.25;100.00;99839.38;5110603;28;20347;-72
2021/08/08 01:56:46;;;;;;;;;;;;;;;15.17;100.00;99835.63;5110143;28;19928;-72
2021/08/08 01:59:12;;;;;;;;;;;;;;;15.20;100.00;99838.00;5110412;28;20448;-72
2021/08/08 02:01:40;;;;;;;;;;;;;;;15.20;100.00;99832.53;5110809;28;19923;-72
2021/08/08 02:04:16;;;;;;;;;;;;;;;15.22;100.00;99830.50;5111009;28;20003;-72
2021/08/08 02:06:44;;;;;;;;;;;;;;;15.21;100.00;99827.94;5110152;28;20018;-72
2021/08/08 02:09:12;;;;;;;;;;;;;;;15.17;100.00;99824.69;5110600;28;19938;-72
2021/08/08 02:11:38;;;;;;;;;;;;;;;15.13;100.00;99828.81;5110559;28;19928;-72
2021/08/08 02:14:11;;;;;;;;;;;;;;;15.06;100.00;99819.63;5110713;28;19924;-72
2021/08/08 02:16:38;;;;;;;;;;;;;;;15.00;100.00;99807.50;5110723;28;19930;-72
2021/08/08 02:19:06;;;;;;;;;;;;;;;14.95;100.00;99807.19;5110752;28;19950;-72
2021/08/08 02:21:40;;;;;;;;;;;;;;;14.96;100.00;99802.56;5110812;28;19938;-72
2021/08/08 02:24:08;;;;;;;;;;;;;;;14.92;100.00;99806.69;5110769;28;19928;-72
2021/08/08 02:26:41;;;;;;;;;;;;;;;14.90;100.00;99802.25;5110565;28;19930;-72
2021/08/08 02:29:08;;;;;;;;;;;;;;;14.88;100.00;99807.06;5110500;28;20522;-72
2021/08/08 02:31:37;;;;;;;;;;;;;;;14.85;100.00;99812.00;5110494;28;20391;-72
2021/08/08 02:34:06;;;;;;;;;;;;;;;14.86;100.00;99805.53;5110489;28;19990;-72
2021/08/08 02:36:36;;;;;;;;;;;;;;;14.80;100.00;99817.97;5110355;28;20406;-72
2021/08/08 02:39:03;;;;;;;;;;;;;;;14.77;100.00;99826.53;5114272;28;19930;-72
2021/08/08 02:41:30;;;;;;;;;;;;;;;14.77;100.00;99833.88;5115569;28;19930;-72
2021/08/08 02:43:58;;;;;;;;;;;;;;;14.74;100.00;99829.63;5114315;28;19928;-72
2021/08/08 02:46:26;;;;;;;;;;;;;;;14.77;100.00;99842.91;5114161;28;19928;-72
2021/08/08 02:48:54;;;;;;;;;;;;;;;14.80;100.00;99841.72;5113803;28;19963;-71
2021/08/08 02:51:25;;;;;;;;;;;;;;;14.79;100.00;99838.16;5114237;28;19951;-66
2021/08/08 02:53:51;;;;;;;;;;;;;;;14.81;100.00;99843.44;5114146;28;19981;-66
2021/08/08 02:56:17;;;;;;;;;;;;;;;14.78;100.00;99843.75;5115400;28;19931;-66
2021/08/08 02:58:45;;;;;;;;;;;;;;;14.80;100.00;99847.19;5113673;28;20399;-66
2021/08/08 03:01:12;;;;;;;;;;;;;;;14.80;100.00;99856.22;5114064;28;19924;-66
2021/08/08 03:03:39;;;;;;;;;;;;;;;14.80;100.00;99858.13;5113820;28;19976;-65
2021/08/08 03:06:11;;;;;;;;;;;;;;;14.81;100.00;99865.28;5114062;28;19927;-66
2021/08/08 03:08:38;;;;;;;;;;;;;;;14.82;100.00;99867.84;5113387;28;19973;-65
2021/08/08 03:11:05;;;;;;;;;;;;;;;14.83;100.00;99876.88;5113872;28;19924;-71
2021/08/08 03:13:31;;;;;;;;;;;;;;;14.87;100.00;99881.84;5113615;28;19924;-72
2021/08/08 03:15:58;;;;;;;;;;;;;;;14.93;100.00;99879.44;5114950;27;19927;-71
2021/08/08 03:18:25;;;;;;;;;;;;;;;14.98;100.00;99872.44;5113326;28;19931;-71
2021/08/08 03:20:51;;;;;;;;;;;;;;;15.02;100.00;99879.25;5113496;28;19923;-71
2021/08/08 03:23:19;;;;;;;;;;;;;;;15.07;100.00;99884.16;5113956;28;19924;-71
2021/08/08 03:25:46;;;;;;;;;;;;;;;15.16;100.00;99885.84;5113366;28;20031;-71
2021/08/08 03:28:12;;;;;;;;;;;;;;;15.23;100.00;99881.41;5114622;28;19968;-72
2021/08/08 03:30:39;;;;;;;;;;;;;;;15.30;100.00;99883.44;5113591;28;19924;-71
2021/08/08 03:33:05;;;;;;;;;;;;;;;15.29;100.00;99887.22;5113444;28;19931;-72
2021/08/08 03:35:32;;;;;;;;;;;;;;;15.34;100.00;99882.03;5113149;28;20417;-66
2021/08/08 03:37:58;;;;;;;;;;;;;;;15.36;100.00;99891.78;5113006;28;19928;-65
2021/08/08 03:40:27;;;;;;;;;;;;;;;15.36;100.00;99891.78;5113347;28;19924;-66
2021/08/08 03:42:54;;;;;;;;;;;;;;;15.39;100.00;99896.03;5113241;28;20283;-66
2021/08/08 03:45:21;;;;;;;;;;;;;;;15.41;100.00;99891.25;5113249;28;19930;-66
2021/08/08 03:47:47;;;;;;;;;;;;;;;15.46;100.00;99893.44;5112437;28;20272;-66
2021/08/08 03:50:14;;;;;;;;;;;;;;;15.44;100.00;99898.25;5113007;28;19969;-66
2021/08/08 03:52:40;;;;;;;;;;;;;;;15.47;100.00;99897.91;5114295;28;19924;-66
2021/08/08 03:55:09;;;;;;;;;;;;;;;15.47;100.00;99901.47;5112960;28;19924;-66
2021/08/08 03:57:37;;;;;;;;;;;;;;;15.47;100.00;99911.56;5112791;28;19932;-66
2021/08/08 04:00:09;;;;;;;;;;;;;;;15.47;100.00;99914.31;5112884;28;19930;-66
2021/08/08 04:02:41;;;;;;;;;;;;;;;15.47;100.00;99917.88;5113974;28;20014;-66
2021/08/08 04:05:09;;;;;;;;;;;;;;;15.48;100.00;99922.34;5112977;28;19927;-71
2021/08/08 04:07:36;;;;;;;;;;;;;;;15.53;100.00;99930.88;5112637;28;19925;-66
2021/08/08 04:10:02;;;;;;;;;;;;;;;15.54;100.00;99924.38;5113947;28;19924;-66
2021/08/08 04:12:29;;;;;;;;;;;;;;;15.53;100.00;99930.88;5112577;28;19924;-65
2021/08/08 04:14:58;;;;;;;;;;;;;;;15.54;100.00;99929.00;5113801;28;19967;-68
2021/08/08 04:17:24;;;;;;;;;;;;;;;15.56;100.00;99941.44;5113621;28;20386;-67
2021/08/08 04:19:50;;;;;;;;;;;;;;;15.57;100.00;99931.38;5113510;28;19977;-66
2021/08/08 04:22:17;;;;;;;;;;;;;;;15.57;100.00;99931.38;5112496;28;19928;-66
2021/08/08 04:24:45;;;;;;;;;;;;;;;15.54;100.00;99949.00;5113417;28;20370;-65
2021/08/08 04:27:12;;;;;;;;;;;;;;;15.52;100.00;99951.03;5112402;28;20158;-72
2021/08/08 04:29:38;;;;;;;;;;;;;;;15.50;100.00;99946.75;5112247;28;19924;-71
2021/08/08 04:32:06;;;;;;;;;;;;;;;15.49;100.00;99953.28;5105897;28;20031;-71
2021/08/08 04:34:33;;;;;;;;;;;;;;;15.45;100.00;99950.03;5106112;28;20390;-71
2021/08/08 04:37:00;;;;;;;;;;;;;;;15.40;100.00;99949.72;5112147;28;20247;-66
2021/08/08 04:39:26;;;;;;;;;;;;;;;15.36;100.00;99951.94;5074574;28;19924;-67
2021/08/08 04:41:53;;;;;;;;;;;;;;;15.36;100.00;99951.09;5092810;28;19982;-65
2021/08/08 04:44:20;;;;;;;;;;;;;;;15.41;100.00;99954.16;5091520;28;19970;-66
2021/08/08 04:46:46;;;;;;;;;;;;;;;15.48;100.00;99952.41;5092279;28;19928;-65
2021/08/08 04:49:14;;;;;;;;;;;;;;;15.60;100.00;99952.06;5091603;28;19924;-65
2021/08/08 04:51:41;;;;;;;;;;;;;;;15.70;100.00;99955.41;5094696;28;20033;-66
2021/08/08 04:54:09;;;;;;;;;;;;;;;15.79;100.00;99965.28;5111847;28;19930;-66
2021/08/08 04:56:35;;;;;;;;;;;;;;;15.87;100.00;99950.75;5109667;28;20027;-67
2021/08/08 04:59:01;;;;;;;;;;;;;;;15.92;100.00;99948.34;5111336;28;19924;-66
2021/08/08 05:01:29;;;;;;;;;;;;;;;15.98;100.00;99952.25;5109376;28;19924;-65
2021/08/08 05:03:56;;;;;;;;;;;;;;;16.00;100.00;99950.19;5094275;28;19932;-66
2021/08/08 05:06:23;;;;;;;;;;;;;;;16.03;100.00;99953.44;5106382;28;19930;-65
2021/08/08 05:08:50;;;;;;;;;;;;;;;16.08;100.00;99955.63;5106309;28;19966;-65
2021/08/08 05:11:16;;;;;;;;;;;;;;;16.10;100.00;99953.56;5111386;28;20349;-66
2021/08/08 05:13:47;;;;;;;;;;;;;;;16.15;100.00;99955.75;5100499;28;20284;-73
2021/08/08 05:16:13;;;;;;;;;;;;;;;16.19;100.00;99957.09;5094124;28;19924;-72
2021/08/08 05:18:40;;;;;;;;;;;;;;;16.23;100.00;99956.56;5112629;28;19924;-72
2021/08/08 05:21:06;;;;;;;;;;;;;;;16.30;100.00;99955.84;5099457;28;20391;-70
2021/08/08 05:23:34;;;;;;;;;;;;;;;16.39;100.00;99968.44;5090268;28;19928;-70
2021/08/08 05:26:02;;;;;;;;;;;;;;;16.43;100.00;99963.47;5092318;28;19932;-70
2021/08/08 05:28:29;;;;;;;;;;;;;;;16.47;100.00;99953.84;5123942;27;19924;-69
2021/08/08 05:30:55;;;;;;;;;;;;;;;16.55;100.00;99965.63;5099357;28;20014;-69
2021/08/08 05:33:21;;;;;;;;;;;;;;;16.62;100.00;99964.88;5113039;28;19923;-69
2021/08/08 05:35:48;;;;;;;;;;;;;;;16.70;100.00;99964.78;5109720;28;19931;-70
2021/08/08 05:38:15;;;;;;;;;;;;;;;16.74;100.00;99972.47;5110901;28;20387;-70
2021/08/08 05:40:42;;;;;;;;;;;;;;;16.80;100.00;99970.88;5090899;28;19924;-68
2021/08/08 05:43:09;;;;;;;;;;;;;;;16.88;100.00;99981.78;5090899;28;19928;-63
2021/08/08 05:45:35;;;;;;;;;;;;;;;16.83;100.00;99981.47;5098742;28;19924;-66
2021/08/08 05:48:02;;;;;;;;;;;;;;;16.86;100.00;99989.34;5090614;28;20010;-65
2021/08/08 05:50:31;;;;;;;;;;;;;;;17.01;100.00;99992.16;5090602;28;20391;-65
2021/08/08 05:53:00;;;;;;;;;;;;;;;16.95;100.00;99997.53;5090724;28;19930;-65
2021/08/08 05:55:27;;;;;;;;;;;;;;;17.00;100.00;99998.69;5090352;28;19924;-66
2021/08/08 05:57:54;;;;;;;;;;;;;;;17.10;100.00;100000.31;5090395;28;19924;-65
2021/08/08 06:00:21;;;;;;;;;;;;;;;17.09;100.00;100002.22;5090659;28;19928;-66
2021/08/08 06:02:54;;;;;;;;;;;;;;;16.95;100.00;99998.38;5090377;28;20307;-65
2021/08/08 06:05:24;;;;;;;;;;;;;;;17.15;100.00;99995.97;5090616;28;19959;-70
2021/08/08 06:07:50;;;;;;;;;;;;;;;17.75;100.00;99990.56;5091319;28;19932;-71
2021/08/08 06:10:17;;;;;;;;;;;;;;;18.28;100.00;99990.44;5091512;28;19970;-71
2021/08/08 06:12:44;;;;;;;;;;;;;;;18.61;100.00;99978.09;5092061;28;20027;-71
2021/08/08 06:15:12;;;;;;;;;;;;;;;18.92;100.00;99972.31;5095503;28;20303;-71
2021/08/08 06:17:39;;;;;;;;;;;;;;;19.06;100.00;99959.53;5094281;28;19953;-71
2021/08/08 06:20:05;;;;;;;;;;;;;;;19.38;100.00;99973.72;5094153;28;19946;-71
2021/08/08 06:22:36;;;;;;;;;;;;;;;19.71;100.00;99962.94;5094401;28;19935;-71
2021/08/08 06:25:03;;;;;;;;;;;;;;;20.45;100.00;99973.44;5094272;28;19946;-66
2021/08/08 06:27:29;;;;;;;;;;;;;;;20.37;100.00;99960.69;5095354;28;19928;-65
2021/08/08 06:29:55;;;;;;;;;;;;;;;20.00;100.00;99966.50;5094133;28;19924;-65
2021/08/08 06:32:23;;;;;;;;;;;;;;;20.26;100.00;99969.53;5094156;28;20015;-65
2021/08/08 06:34:49;;;;;;;;;;;;;;;20.28;100.00;99967.44;5094075;28;20367;-65
2021/08/08 06:37:16;;;;;;;;;;;;;;;20.53;100.00;99970.50;5076903;28;19924;-65
2021/08/08 06:39:43;;;;;;;;;;;;;;;20.45;100.00;99973.44;5093992;28;19924;-65
2021/08/08 06:42:10;;;;;;;;;;;;;;;20.41;100.00;99975.75;5094045;28;19924;-65
2021/08/08 06:44:42;;;;;;;;;;;;;;;20.17;100.00;99986.25;5093760;28;19947;-65
2021/08/08 06:47:09;;;;;;;;;;;;;;;20.16;100.00;99976.31;5093652;28;19931;-65
2021/08/08 06:49:36;;;;;;;;;;;;;;;20.68;100.00;99981.31;5093791;28;19924;-65
2021/08/08 06:52:03;;;;;;;;;;;;;;;21.41;100.00;99988.81;5093956;28;20357;-66
2021/08/08 06:54:30;;;;;;;;;;;;;;;21.60;100.00;99976.09;5094187;28;19942;-69
2021/08/08 06:56:56;;;;;;;;;;;;;;;21.64;100.00;99991.16;5093190;28;19935;-71
2021/08/08 06:59:24;;;;;;;;;;;;;;;21.13;100.00;99986.31;5093524;28;19993;-70
2021/08/08 07:01:50;;;;;;;;;;;;;;;21.40;100.00;99985.19;5106792;28;19927;-70
2021/08/08 07:04:18;;;;;;;;;;;;;;;21.14;100.00;99991.59;5114089;28;19924;-70
2021/08/08 07:06:45;;;;;;;;;;;;;;;21.43;100.00;99989.44;5095107;28;19978;-70
2021/08/08 07:09:12;;;;;;;;;;;;;;;21.87;100.00;99982.41;5094687;28;19953;-69
2021/08/08 07:11:40;;;;;;;;;;;;;;;22.55;100.00;99986.59;5100021;28;19923;-69
2021/08/08 07:14:16;;;;;;;;;;;;;;;22.74;100.00;99994.97;5110477;28;19999;-69
2021/08/08 07:16:42;;;;;;;;;;;;;;;22.70;100.00;99990.97;5111868;28;20015;-69
2021/08/08 07:19:08;;;;;;;;;;;;;;;22.64;100.00;99997.41;5111728;28;19924;-69
2021/08/08 07:21:35;;;;;;;;;;;;;;;22.36;100.00;99993.06;5094754;28;19953;-69
2021/08/08 07:24:03;;;;;;;;;;;;;;;22.30;100.00;100005.84;5111874;28;20220;-69
2021/08/08 07:26:29;;;;;;;;;;;;;;;22.49;100.00;100006.81;5112058;28;19924;-69
2021/08/08 07:28:55;;;;;;;;;;;;;;;22.52;100.00;100011.06;5112507;28;19930;-69
2021/08/08 07:31:22;;;;;;;;;;;;;;;22.38;100.00;100011.13;5098608;28;19924;-69
2021/08/08 07:33:48;;;;;;;;;;;;;;;22.57;100.00;100009.34;5092870;28;19971;-69
2021/08/08 07:36:14;;;;;;;;;;;;;;;23.16;100.00;100020.25;5113636;28;19969;-69
2021/08/08 07:38:41;;;;;;;;;;;;;;;23.16;100.00;100013.88;5112581;28;19953;-70
2021/08/08 07:41:11;;;;;;;;;;;;;;;22.79;100.00;100017.28;5109637;28;20331;-69
2021/08/08 07:43:37;;;;;;;;;;;;;;;22.73;100.00;100024.56;5106174;28;19930;-70
2021/08/08 07:46:04;;;;;;;;;;;;;;;23.23;100.00;100023.81;5113900;27;19977;-69
2021/08/08 07:48:30;;;;;;;;;;;;;;;23.02;100.00;100040.75;5112821;28;20271;-70
2021/08/08 07:50:57;;;;;;;;;;;;;;;22.84;100.00;100022.16;5112808;28;19976;-69
2021/08/08 07:53:24;;;;;;;;;;;;;;;22.49;100.00;100026.19;5112846;28;20396;-70
2021/08/08 07:55:54;;;;;;;;;;;;;;;22.67;100.00;100038.44;5112798;28;20556;-69
2021/08/08 07:58:22;;;;;;;;;;;;;;;22.59;100.00;100052.53;5112516;28;19924;-69
2021/08/08 08:00:49;;;;;;;;;;;;;;;23.04;100.00;100046.94;5112832;28;20341;-69
2021/08/08 08:03:15;;;;;;;;;;;;;;;22.67;100.00;100044.78;5112850;28;19990;-69
2021/08/08 08:05:42;;;;;;;;;;;;;;;23.51;100.00;100046.59;5107428;28;19986;-69
2021/08/08 08:08:09;;;;;;;;;;;;;;;23.05;100.00;100043.09;5094912;28;20303;-69
2021/08/08 08:10:36;;;;;;;;;;;;;;;22.99;100.00;100043.97;5091912;28;19924;-69
2021/08/08 08:13:02;;;;;;;;;;;;;;;22.45;100.00;100060.00;5093420;28;20430;-69
2021/08/08 08:15:30;;;;;;;;;;;;;;;22.72;100.00;100050.53;5092960;28;20383;-70
2021/08/08 08:17:56;;;;;;;;;;;;;;;23.39;100.00;100049.25;5097928;28;20030;-69
2021/08/08 08:20:23;;;;;;;;;;;;;;;23.02;100.00;100049.94;5106306;28;19924;-69
2021/08/08 08:22:50;;;;;;;;;;;;;;;23.20;100.00;100057.47;5109829;28;19932;-68
2021/08/08 08:25:17;;;;;;;;;;;;;;;22.92;100.00;100068.94;5109284;28;20391;-68
2021/08/08 08:27:43;;;;;;;;;;;;;;;23.52;100.00;100059.38;5110284;28;20010;-69
2021/08/08 08:30:11;;;;;;;;;;;;;;;23.06;100.00;100066.91;5093759;28;19962;-70
2021/08/08 08:32:39;;;;;;;;;;;;;;;23.65;100.00;100070.34;5110642;28;19955;-70
2021/08/08 08:35:05;;;;;;;;;;;;;;;23.61;100.00;100060.78;5109638;28;19977;-69
2021/08/08 08:37:32;;;;;;;;;;;;;;;24.34;100.00;100061.94;5110381;28;19927;-70
2021/08/08 08:40:01;;;;;;;;;;;;;;;24.81;100.00;100075.25;5112060;28;19924;-69
2021/08/08 08:42:29;;;;;;;;;;;;;;;25.01;100.00;100065.78;5112041;28;19995;-69
2021/08/08 08:44:55;;;;;;;;;;;;;;;25.47;100.00;100067.03;5111707;28;19988;-69
2021/08/08 08:47:22;;;;;;;;;;;;;;;25.33;100.00;100065.50;5112796;28;19931;-69
2021/08/08 08:49:58;;;;;;;;;;;;;;;25.75;99.63;100073.81;5090896;28;19943;-70
2021/08/08 08:52:26;;;;;;;;;;;;;;;25.62;94.74;100079.63;5091440;28;19932;-69
2021/08/08 08:54:53;;;;;;;;;;;;;;;23.87;100.00;100079.06;5092299;28;19985;-68
2021/08/08 08:57:19;;;;;;;;;;;;;;;23.07;100.00;100080.53;5099579;28;20312;-68
2021/08/08 08:59:47;;;;;;;;;;;;;;;22.51;100.00;100092.31;5110733;28;19924;-68
2021/08/08 09:02:14;;;;;;;;;;;;;;;21.90;100.00;100105.44;5109285;28;19932;-69
2021/08/08 09:04:41;;;;;;;;;;;;;;;21.63;100.00;100101.81;5110024;28;20010;-69
2021/08/08 09:07:09;;;;;;;;;;;;;;;22.10;100.00;100102.63;5110101;28;19931;-68
2021/08/08 09:09:38;;;;;;;;;;;;;;;21.39;100.00;100099.47;5110729;28;19924;-69
2021/08/08 09:12:05;;;;;;;;;;;;;;;21.34;100.00;100106.66;5110187;28;19931;-68
2021/08/08 09:14:33;;;;;;;;;;;;;;;22.00;100.00;100102.22;5110960;28;19965;-66
2021/08/08 09:17:00;;;;;;;;;;;;;;;22.66;100.00;100103.09;5104456;28;19931;-67
2021/08/08 09:19:34;;;;;;;;;;;;;;;22.92;100.00;100095.75;5090450;28;20002;-66
2021/08/08 09:22:04;;;;;;;;;;;;;;;23.73;100.00;100100.53;5091007;28;19931;-66
2021/08/08 09:24:36;;;;;;;;;;;;;;;23.78;100.00;100101.75;5090445;28;19924;-67
2021/08/08 09:27:06;;;;;;;;;;;;;;;23.33;100.00;100102.75;5092167;28;20379;-66
2021/08/08 09:29:33;;;;;;;;;;;;;;;24.44;100.00;100104.94;5090648;28;19924;-70
2021/08/08 09:32:01;;;;;;;;;;;;;;;24.70;100.00;100098.25;5092405;28;19931;-70
2021/08/08 09:34:30;;;;;;;;;;;;;;;25.41;96.71;100095.75;5090617;28;19967;-70
2021/08/08 09:36:57;;;;;;;;;;;;;;;24.76;94.85;100089.00;5093082;28;19928;-68
2021/08/08 09:39:31;;;;;;;;;;;;;;;25.44;94.72;100092.53;5091710;28;19963;-67
2021/08/08 09:42:12;;;;;;;;;;;;;;;25.78;90.63;100103.06;5096299;28;19927;-66
2021/08/08 09:44:39;;;;;;;;;;;;;;;26.42;90.82;100110.66;5104565;28;20408;-66
2021/08/08 09:47:06;;;;;;;;;;;;;;;25.47;94.13;100105.06;5110400;28;20263;-67
2021/08/08 09:49:32;;;;;;;;;;;;;;;24.22;100.00;100114.53;5106233;28;20178;-66
2021/08/08 09:51:58;;;;;;;;;;;;;;;23.14;100.00;100116.50;5091382;28;20001;-65
2021/08/08 09:54:34;;;;;;;;;;;;;;;23.16;100.00;100114.38;5090868;28;19964;-66
2021/08/08 09:57:01;;;;;;;;;;;;;;;23.68;100.00;100111.41;5091275;28;20012;-67
2021/08/08 09:59:29;;;;;;;;;;;;;;;23.61;100.00;100120.84;5091534;28;19985;-66
2021/08/08 10:01:56;;;;;;;;;;;;;;;23.15;100.00;100123.72;5090797;28;19924;-65
2021/08/08 10:04:22;;;;;;;;;;;;;;;22.81;100.00;100125.81;5089758;28;19977;-66
2021/08/08 10:06:48;;;;;;;;;;;;;;;22.59;100.00;100136.31;5089875;28;20371;-65
2021/08/08 10:09:17;;;;;;;;;;;;;;;22.19;100.00;100137.28;5090967;28;20383;-66
2021/08/08 10:11:46;;;;;;;;;;;;;;;21.93;100.00;100140.91;5091483;28;19924;-66
2021/08/08 10:14:13;;;;;;;;;;;;;;;21.89;100.00;100140.47;5091279;28;20138;-65
2021/08/08 10:16:42;;;;;;;;;;;;;;;23.30;100.00;100139.19;5089373;28;19925;-65
2021/08/08 10:19:10;;;;;;;;;;;;;;;23.70;100.00;100144.44;5090130;28;19924;-65
2021/08/08 10:21:41;;;;;;;;;;;;;;;24.12;100.00;100136.44;5097867;28;19967;-66
2021/08/08 10:24:09;;;;;;;;;;;;;;;23.98;100.00;100140.41;5102636;28;19924;-66
2021/08/08 10:26:35;;;;;;;;;;;;;;;24.42;100.00;100144.00;5104546;28;19959;-66
2021/08/08 10:29:02;;;;;;;;;;;;;;;24.13;100.00;100146.44;5091285;28;20386;-66
2021/08/08 10:31:30;;;;;;;;;;;;;;;24.00;97.21;100147.41;5093959;28;20036;-66
2021/08/08 10:33:59;;;;;;;;;;;;;;;23.53;100.00;100161.63;5111699;28;19923;-66
2021/08/08 10:36:26;;;;;;;;;;;;;;;23.34;100.00;100162.59;5103124;28;20363;-66
2021/08/08 10:38:53;;;;;;;;;;;;;;;22.71;100.00;100165.00;5089588;28;20379;-65
2021/08/08 10:41:20;;;;;;;;;;;;;;;22.72;100.00;100163.94;5091327;28;19928;-66
2021/08/08 10:43:46;;;;;;;;;;;;;;;22.85;100.00;100176.00;5091086;28;19925;-65
2021/08/08 10:46:14;;;;;;;;;;;;;;;23.96;100.00;100160.03;5090965;28;20403;-65
2021/08/08 10:48:41;;;;;;;;;;;;;;;24.76;93.85;100160.28;5090557;28;19959;-65
2021/08/08 10:51:17;;;;;;;;;;;;;;;25.11;88.94;100160.47;5089925;28;20116;-65
2021/08/08 10:53:43;;;;;;;;;;;;;;;25.57;85.83;100163.66;5090812;28;19924;-71
2021/08/08 10:56:11;;;;;;;;;;;;;;;24.91;82.53;100180.16;5095383;28;20057;-70
2021/08/08 10:58:37;;;;;;;;;;;;;;;23.88;85.99;100180.53;5091763;28;20018;-65
2021/08/08 11:01:15;;;;;;;;;;;;;;;23.29;93.89;100196.50;5094432;28;19970;-65
2021/08/08 11:03:49;;;;;;;;;;;;;;;23.16;97.05;100202.09;5094518;28;19928;-66
2021/08/08 11:06:20;;;;;;;;;;;;;;;24.09;91.86;100192.31;5094499;28;19932;-66
2021/08/08 11:08:50;;;;;;;;;;;;;;;24.38;85.69;100192.69;5094411;28;19928;-70
2021/08/08 11:11:17;;;;;;;;;;;;;;;25.10;81.74;100188.47;5094665;28;20027;-72
2021/08/08 11:13:43;;;;;;;;;;;;;;;25.42;77.67;100196.63;5094573;28;19967;-72
2021/08/08 11:16:12;;;;;;;;;;;;;;;25.74;74.88;100198.00;5098375;28;19924;-71
2021/08/08 11:18:39;;;;;;;;;;;;;;;25.12;68.74;100186.28;5095004;28;19932;-72
2021/08/08 11:21:11;;;;;;;;;;;;;;;25.50;70.88;100180.44;5094410;28;19932;-70
2021/08/08 11:23:38;;;;;;;;;;;;;;;25.52;73.25;100189.41;5098431;28;20284;-70
2021/08/08 11:26:05;;;;;;;;;;;;;;;25.33;81.56;100184.94;5110989;28;20036;-70
2021/08/08 11:28:31;;;;;;;;;;;;;;;24.85;75.89;100195.84;5093893;28;20022;-70
2021/08/08 11:30:57;;;;;;;;;;;;;;;24.30;76.50;100204.06;5095806;28;20402;-69
2021/08/08 11:33:26;;;;;;;;;;;;;;;24.01;87.63;100206.44;5114683;28;19963;-70
2021/08/08 11:35:58;;;;;;;;;;;;;;;23.31;84.43;100205.41;5113441;28;20137;-67
2021/08/08 11:38:25;;;;;;;;;;;;;;;23.17;90.57;100214.84;5096913;28;19924;-66
2021/08/08 11:40:53;;;;;;;;;;;;;;;22.71;89.76;100220.31;5113902;28;19954;-66
2021/08/08 11:43:19;;;;;;;;;;;;;;;22.64;98.84;100224.19;5094045;28;20022;-66
2021/08/08 11:45:46;;;;;;;;;;;;;;;22.87;95.46;100224.50;5093643;28;19950;-65
2021/08/08 11:48:13;;;;;;;;;;;;;;;23.21;95.96;100230.81;5093172;28;20422;-71
2021/08/08 11:50:41;;;;;;;;;;;;;;;23.73;90.60;100232.63;5092674;28;21566;-69
2021/08/08 11:53:09;;;;;;;;;;;;;;;24.56;82.86;100230.69;5093852;28;19955;-70
2021/08/08 11:55:35;;;;;;;;;;;;;;;24.79;85.88;100232.00;5093501;28;20438;-70
2021/08/08 11:58:07;;;;;;;;;;;;;;;25.18;78.92;100222.31;5092877;28;19924;-70
2021/08/08 12:00:37;;;;;;;1999.90;999.90;;;;;;;25.35;80.54;100227.25;5103982;28;20412;-69
2021/08/08 12:03:05;;;;;;;1999.90;999.90;;;;;;;24.81;81.02;100227.88;5111238;28;20787;-70
2021/08/08 12:05:32;;;;;;;1999.90;999.90;;;;;;;24.09;85.41;100241.34;5111950;28;20425;-71
2021/08/08 12:07:59;;;;;;;1999.90;999.90;;;;;;;23.74;88.07;100240.75;5111846;28;20903;-71
2021/08/08 12:10:28;;;;;;;1999.90;999.90;;;;;;;23.58;91.82;100238.47;5091510;28;20423;-69
2021/08/08 12:12:54;;;;;;;1999.90;999.90;;;;;;;23.55;93.16;100256.41;5091472;28;20506;-69
2021/08/08 12:15:33;;;;;;;1999.90;999.90;;;;;;;24.13;90.89;100235.16;5109360;28;20404;-70
2021/08/08 12:18:03;;;;;;;1999.90;999.90;;;;;;;25.24;82.35;100238.03;5110164;28;20428;-70
2021/08/08 12:20:35;;;;;;;1999.90;999.90;;;;;;;26.29;73.43;100239.72;5092863;28;20422;-70
2021/08/08 12:23:06;;;;;;;1999.90;999.90;;;;;;;26.36;71.09;100240.44;5109280;28;20472;-70
2021/08/08 12:25:33;;;;;;;1999.90;999.90;;;;;;;26.52;73.11;100250.88;5091416;28;20498;-67
2021/08/08 12:27:59;;;;;;;1999.90;999.90;;;;;;;25.79;75.63;100244.56;5092401;28;20040;-66
2021/08/08 12:30:27;;;;;;;;;;;;;;;25.28;70.29;100237.56;5111270;28;20074;-70